createdAt,value
2022-07-25T00:00:27.159Z,17.10
2022-07-25T00:02:53.980Z,17.20
2022-07-25T00:05:21.085Z,17.10
2022-07-25T00:07:47.980Z,17.10
2022-07-25T00:10:14.691Z,17.10
2022-07-25T00:12:41.480Z,17.10
2022-07-25T00:15:08.399Z,17.00
2022-07-25T00:17:35.092Z,16.90
2022-07-25T00:20:02.114Z,16.90
2022-07-25T00:22:28.877Z,16.80
2022-07-25T00:24:55.671Z,16.80
2022-07-25T00:27:22.387Z,16.80
2022-07-25T00:29:49.072Z,16.90
2022-07-25T00:32:15.876Z,16.80
2022-07-25T00:34:42.644Z,16.70
2022-07-25T00:37:09.292Z,16.70
2022-07-25T00:39:36.550Z,16.70
2022-07-25T00:42:03.498Z,16.70
2022-07-25T00:44:31.253Z,16.70
2022-07-25T00:46:58.700Z,16.70
2022-07-25T00:49:25.838Z,16.70
2022-07-25T00:51:53.577Z,16.60
2022-07-25T00:54:20.568Z,16.60
2022-07-25T00:56:47.903Z,16.60
2022-07-25T00:59:14.845Z,16.60
2022-07-25T01:01:42.713Z,16.40
2022-07-25T01:04:09.579Z,16.40
2022-07-25T01:06:36.595Z,16.40
2022-07-25T01:09:04.331Z,16.40
2022-07-25T01:11:31.221Z,16.40
2022-07-25T01:13:57.961Z,16.40
2022-07-25T01:16:24.748Z,16.40
2022-07-25T01:18:51.524Z,16.40
2022-07-25T01:21:18.167Z,16.30
2022-07-25T01:23:45.064Z,16.30
2022-07-25T01:26:11.780Z,16.30
2022-07-25T01:28:38.547Z,16.30
2022-07-25T01:31:05.928Z,16.30
2022-07-25T01:33:32.691Z,16.40
2022-07-25T01:35:59.392Z,16.40
2022-07-25T01:38:26.097Z,16.40
2022-07-25T01:40:52.851Z,16.40
2022-07-25T01:43:19.587Z,16.40
2022-07-25T01:45:46.300Z,16.50
2022-07-25T01:48:13.073Z,16.50
2022-07-25T01:50:39.896Z,16.40
2022-07-25T01:53:06.652Z,16.40
2022-07-25T01:55:33.447Z,16.50
2022-07-25T01:58:00.168Z,16.40
2022-07-25T02:00:27.300Z,16.40
2022-07-25T02:03:13.975Z,16.30
2022-07-25T02:05:40.652Z,16.30
2022-07-25T02:08:07.352Z,16.30
2022-07-25T02:10:36.530Z,16.20
2022-07-25T02:13:03.984Z,16.30
2022-07-25T02:15:30.738Z,16.20
2022-07-25T02:17:57.423Z,16.20
2022-07-25T02:20:24.201Z,16.20
2022-07-25T02:22:50.861Z,16.20
2022-07-25T02:25:17.597Z,16.10
2022-07-25T02:27:44.297Z,16.10
2022-07-25T02:30:11.212Z,16.20
2022-07-25T02:32:37.946Z,16.20
2022-07-25T02:35:05.646Z,16.30
2022-07-25T02:37:40.272Z,16.20
2022-07-25T02:40:07.377Z,16.20
2022-07-25T02:42:34.102Z,16.30
2022-07-25T02:45:00.769Z,16.30
2022-07-25T02:47:27.492Z,16.30
2022-07-25T02:49:54.549Z,16.30
2022-07-25T02:52:21.235Z,16.30
2022-07-25T02:54:48.035Z,16.20
2022-07-25T02:57:14.695Z,16.20
2022-07-25T02:59:41.392Z,16.10
2022-07-25T03:02:08.096Z,16.10
2022-07-25T03:04:34.991Z,16.00
2022-07-25T03:07:01.828Z,16.00
2022-07-25T03:09:28.530Z,16.10
2022-07-25T03:11:55.206Z,16.20
2022-07-25T03:14:21.927Z,16.20
2022-07-25T03:16:48.709Z,16.30
2022-07-25T03:19:15.473Z,16.30
2022-07-25T03:21:42.168Z,16.30
2022-07-25T03:24:09.148Z,16.30
2022-07-25T03:26:36.169Z,16.30
2022-07-25T03:29:02.942Z,16.30
2022-07-25T03:31:29.767Z,16.30
2022-07-25T03:33:56.919Z,16.30
2022-07-25T03:36:23.624Z,16.30
2022-07-25T03:38:52.068Z,16.30
2022-07-25T03:41:18.758Z,16.30
2022-07-25T03:43:45.407Z,16.20
2022-07-25T03:46:12.139Z,16.30
2022-07-25T03:48:39.051Z,16.20
2022-07-25T03:51:07.205Z,16.30
2022-07-25T03:53:54.417Z,16.30
2022-07-25T03:56:21.113Z,16.30
2022-07-25T03:58:47.785Z,16.40
2022-07-25T04:01:14.571Z,16.40
2022-07-25T04:03:41.368Z,16.30
2022-07-25T04:06:10.469Z,16.30
2022-07-25T04:08:37.133Z,16.40
2022-07-25T04:11:03.830Z,16.50
2022-07-25T04:13:30.480Z,16.50
2022-07-25T04:15:57.204Z,16.40
2022-07-25T04:18:25.199Z,16.50
2022-07-25T04:20:55.549Z,16.60
2022-07-25T04:23:22.302Z,16.50
2022-07-25T04:25:49.166Z,16.60
2022-07-25T04:28:15.880Z,16.60
2022-07-25T04:30:45.449Z,16.60
2022-07-25T04:33:12.786Z,16.60
2022-07-25T04:35:39.627Z,16.60
2022-07-25T04:38:11.658Z,16.60
2022-07-25T04:40:38.898Z,16.50
2022-07-25T04:43:05.895Z,16.70
2022-07-25T04:45:33.010Z,16.80
2022-07-25T04:47:59.741Z,16.90
2022-07-25T04:50:26.607Z,16.80
2022-07-25T04:52:53.339Z,17.00
2022-07-25T04:55:20.065Z,17.00
2022-07-25T04:57:47.333Z,17.00
2022-07-25T05:00:14.491Z,17.10
2022-07-25T05:02:42.860Z,17.20
2022-07-25T05:05:21.478Z,17.30
2022-07-25T05:07:48.764Z,17.30
2022-07-25T05:10:15.416Z,17.50
2022-07-25T05:12:42.144Z,17.50
2022-07-25T05:15:09.187Z,17.60
2022-07-25T05:17:35.867Z,17.60
2022-07-25T05:20:02.699Z,17.70
2022-07-25T05:22:29.355Z,17.80
2022-07-25T05:24:56.387Z,17.90
2022-07-25T05:27:23.305Z,18.00
2022-07-25T05:29:49.960Z,18.10
2022-07-25T05:32:16.741Z,18.20
2022-07-25T05:34:43.430Z,18.30
2022-07-25T05:37:10.114Z,18.50
2022-07-25T05:39:39.774Z,18.60
2022-07-25T05:42:07.037Z,18.80
2022-07-25T05:44:33.736Z,18.90
2022-07-25T05:47:00.607Z,19.10
2022-07-25T05:49:27.364Z,19.30
2022-07-25T05:51:54.040Z,19.50
2022-07-25T05:54:20.728Z,19.60
2022-07-25T05:56:47.637Z,19.90
2022-07-25T05:59:14.286Z,20.10
2022-07-25T06:01:41.108Z,20.30
2022-07-25T06:04:08.206Z,20.50
2022-07-25T06:06:35.338Z,20.60
2022-07-25T06:09:02.214Z,20.70
2022-07-25T06:11:34.900Z,20.90
2022-07-25T06:14:04.450Z,21.00
2022-07-25T06:16:33.976Z,21.10
2022-07-25T06:19:00.680Z,21.30
2022-07-25T06:21:27.373Z,21.40
2022-07-25T06:23:54.514Z,21.60
2022-07-25T06:26:21.469Z,21.70
2022-07-25T06:28:48.127Z,21.90
2022-07-25T06:31:15.327Z,22.10
2022-07-25T06:33:42.136Z,22.20
2022-07-25T06:36:08.932Z,22.30
2022-07-25T06:38:35.618Z,22.30
2022-07-25T06:41:02.320Z,22.40
2022-07-25T06:43:29.031Z,22.50
2022-07-25T06:45:56.017Z,22.50
2022-07-25T06:48:24.380Z,22.60
2022-07-25T06:50:51.472Z,22.70
2022-07-25T06:53:18.543Z,22.80
2022-07-25T06:55:45.684Z,22.90
2022-07-25T06:58:12.393Z,23.00
2022-07-25T07:00:39.499Z,23.10
2022-07-25T07:03:06.279Z,23.20
2022-07-25T07:05:33.695Z,23.30
2022-07-25T07:08:00.999Z,23.50
2022-07-25T07:10:28.175Z,23.50
2022-07-25T07:13:08.056Z,23.70
2022-07-25T07:15:35.397Z,23.80
2022-07-25T07:18:02.251Z,23.90
2022-07-25T07:20:29.616Z,23.90
2022-07-25T07:22:56.310Z,24.00
2022-07-25T07:25:24.667Z,24.10
2022-07-25T07:27:55.154Z,24.20
2022-07-25T07:30:24.865Z,24.20
2022-07-25T07:32:56.507Z,24.30
2022-07-25T07:35:25.385Z,24.40
2022-07-25T07:37:54.559Z,24.50
2022-07-25T07:40:21.963Z,24.60
2022-07-25T07:42:49.722Z,24.80
2022-07-25T07:45:18.103Z,24.70
2022-07-25T07:47:48.055Z,24.80
2022-07-25T07:50:16.159Z,24.90
2022-07-25T07:52:43.345Z,25.00
2022-07-25T07:55:29.071Z,25.00
2022-07-25T07:57:55.857Z,25.00
2022-07-25T08:00:23.146Z,25.00
2022-07-25T08:02:51.208Z,25.00
2022-07-25T08:05:21.739Z,25.20
2022-07-25T08:07:48.545Z,25.20
2022-07-25T08:10:15.213Z,25.30
2022-07-25T08:12:42.313Z,25.40
2022-07-25T08:15:09.409Z,25.40
2022-07-25T08:17:36.440Z,25.40
2022-07-25T08:20:27.961Z,25.40
2022-07-25T08:22:56.699Z,25.40
2022-07-25T08:25:23.568Z,25.50
2022-07-25T08:27:50.223Z,25.50
2022-07-25T08:30:17.762Z,25.50
2022-07-25T08:32:48.399Z,25.60
2022-07-25T08:35:15.352Z,25.70
2022-07-25T08:37:42.072Z,25.70
2022-07-25T08:40:09.161Z,25.80
2022-07-25T08:42:35.954Z,25.90
2022-07-25T08:45:04.144Z,25.90
2022-07-25T08:47:30.937Z,25.90
2022-07-25T08:50:02.371Z,25.90
2022-07-25T08:52:31.790Z,26.00
2022-07-25T08:54:58.468Z,26.10
2022-07-25T08:57:25.420Z,26.20
2022-07-25T08:59:52.165Z,26.40
2022-07-25T09:02:18.942Z,26.40
2022-07-25T09:04:45.837Z,26.40
2022-07-25T09:07:12.534Z,26.30
2022-07-25T09:09:39.560Z,26.40
2022-07-25T09:12:06.918Z,26.30
2022-07-25T09:14:43.565Z,26.50
2022-07-25T09:17:21.992Z,26.70
2022-07-25T09:19:54.375Z,27.00
2022-07-25T09:22:21.211Z,27.00
2022-07-25T09:24:48.137Z,27.00
2022-07-25T09:27:15.310Z,27.10
2022-07-25T09:29:45.232Z,27.10
2022-07-25T09:32:16.096Z,27.30
2022-07-25T09:34:44.601Z,27.30
2022-07-25T09:37:12.610Z,27.30
2022-07-25T09:39:46.300Z,27.30
2022-07-25T09:42:16.860Z,27.30
2022-07-25T09:44:44.093Z,27.30
2022-07-25T09:47:11.955Z,27.40
2022-07-25T09:49:40.587Z,27.40
2022-07-25T09:52:07.544Z,27.30
2022-07-25T09:54:34.600Z,27.50
2022-07-25T09:57:01.990Z,27.40
2022-07-25T09:59:28.728Z,27.40
2022-07-25T10:02:07.054Z,27.20
2022-07-25T10:04:36.832Z,27.30
2022-07-25T10:07:07.780Z,27.40
2022-07-25T10:09:40.972Z,27.30
2022-07-25T10:12:08.932Z,27.30
2022-07-25T10:14:36.422Z,27.30
2022-07-25T10:17:03.368Z,27.30
2022-07-25T10:19:45.970Z,27.30
2022-07-25T10:22:18.588Z,27.30
2022-07-25T10:24:49.654Z,27.30
2022-07-25T10:27:22.812Z,27.40
2022-07-25T10:29:50.540Z,27.40
2022-07-25T10:32:17.258Z,27.50
2022-07-25T10:34:52.139Z,27.50
2022-07-25T10:37:21.137Z,27.50
2022-07-25T10:39:50.729Z,27.50
2022-07-25T10:42:20.535Z,27.60
2022-07-25T10:44:53.388Z,27.70
2022-07-25T10:47:22.894Z,27.70
2022-07-25T10:50:29.545Z,27.70
2022-07-25T10:52:43.084Z,27.70
2022-07-25T10:55:09.828Z,27.70
2022-07-25T10:57:41.718Z,27.70
2022-07-25T11:00:21.846Z,27.70
2022-07-25T11:02:50.015Z,27.80
2022-07-25T11:05:16.719Z,27.90
2022-07-25T11:08:04.724Z,28.00
2022-07-25T11:10:36.733Z,28.00
2022-07-25T11:13:03.457Z,27.90
2022-07-25T11:15:30.207Z,28.00
2022-07-25T11:17:56.951Z,28.10
2022-07-25T11:20:23.612Z,28.30
2022-07-25T11:22:54.469Z,28.40
2022-07-25T11:25:23.003Z,28.40
2022-07-25T11:27:50.341Z,28.40
2022-07-25T11:30:17.822Z,28.40
2022-07-25T11:32:44.671Z,28.40
2022-07-25T11:35:11.874Z,28.40
2022-07-25T11:37:41.051Z,28.40
2022-07-25T11:40:09.101Z,28.40
2022-07-25T11:42:43.138Z,28.50
2022-07-25T11:45:39.063Z,28.40
2022-07-25T11:48:07.657Z,28.40
2022-07-25T11:50:36.117Z,28.50
2022-07-25T11:53:04.646Z,28.60
2022-07-25T11:55:40.809Z,28.60
2022-07-25T11:58:08.335Z,28.70
2022-07-25T12:00:36.608Z,28.70
2022-07-25T12:03:07.534Z,28.70
2022-07-25T12:05:34.453Z,28.90
2022-07-25T12:08:10.189Z,28.90
2022-07-25T12:10:39.717Z,28.90
2022-07-25T12:13:08.113Z,28.80
2022-07-25T12:15:39.287Z,28.80
2022-07-25T12:18:06.689Z,28.70
2022-07-25T12:20:35.162Z,28.60
2022-07-25T12:23:04.760Z,28.70
2022-07-25T12:25:32.037Z,28.80
2022-07-25T12:27:59.384Z,28.80
2022-07-25T12:30:29.494Z,29.00
2022-07-25T12:32:56.885Z,29.20
2022-07-25T12:35:23.900Z,29.20
2022-07-25T12:37:50.983Z,29.30
2022-07-25T12:40:17.854Z,29.40
2022-07-25T12:42:44.913Z,29.40
2022-07-25T12:45:12.210Z,29.40
2022-07-25T12:47:39.367Z,29.40
2022-07-25T12:50:06.581Z,29.30
2022-07-25T12:52:33.561Z,29.20
2022-07-25T12:55:00.278Z,29.20
2022-07-25T12:57:27.094Z,29.30
2022-07-25T12:59:53.747Z,29.30
2022-07-25T13:02:20.472Z,29.30
2022-07-25T13:04:48.943Z,29.30
2022-07-25T13:07:16.207Z,29.40
2022-07-25T13:09:43.162Z,29.50
2022-07-25T13:12:13.469Z,29.60
2022-07-25T13:14:42.887Z,29.60
2022-07-25T13:17:09.595Z,29.40
2022-07-25T13:19:37.050Z,29.30
2022-07-25T13:22:03.742Z,29.20
2022-07-25T13:24:31.215Z,29.20
2022-07-25T13:26:57.980Z,29.30
2022-07-25T13:29:24.629Z,29.30
2022-07-25T13:31:51.553Z,29.40
2022-07-25T13:34:18.603Z,29.60
2022-07-25T13:36:45.348Z,29.70
2022-07-25T13:39:12.019Z,29.80
2022-07-25T13:41:38.720Z,29.80
2022-07-25T13:44:05.620Z,29.90
2022-07-25T13:46:32.880Z,29.80
2022-07-25T13:48:59.857Z,29.70
2022-07-25T13:51:26.708Z,29.70
2022-07-25T13:53:53.370Z,29.50
2022-07-25T13:56:20.093Z,29.40
2022-07-25T13:58:48.023Z,29.70
2022-07-25T14:01:15.221Z,30.00
2022-07-25T14:03:41.996Z,30.10
2022-07-25T14:06:09.804Z,30.20
2022-07-25T14:08:36.497Z,30.20
2022-07-25T14:11:05.556Z,30.20
2022-07-25T14:13:33.036Z,30.30
2022-07-25T14:15:59.745Z,30.40
2022-07-25T14:18:26.585Z,30.40
2022-07-25T14:20:55.189Z,30.50
2022-07-25T14:23:24.687Z,30.80
2022-07-25T14:25:53.714Z,30.90
2022-07-25T14:28:20.396Z,31.10
2022-07-25T14:30:47.077Z,31.20
2022-07-25T14:33:13.765Z,31.20
2022-07-25T14:35:40.419Z,31.30
2022-07-25T14:38:07.118Z,31.40
2022-07-25T14:40:34.262Z,31.50
2022-07-25T14:43:00.968Z,31.50
2022-07-25T14:45:27.655Z,31.40
2022-07-25T14:47:54.387Z,31.30
2022-07-25T14:50:21.199Z,31.30
2022-07-25T14:52:48.065Z,31.20
2022-07-25T14:55:14.803Z,31.10
2022-07-25T14:57:41.500Z,31.10
2022-07-25T15:00:08.607Z,31.10
2022-07-25T15:02:35.339Z,31.10
2022-07-25T15:05:02.202Z,31.10
2022-07-25T15:07:29.140Z,31.30
2022-07-25T15:09:55.828Z,31.50
2022-07-25T15:12:22.553Z,31.50
2022-07-25T15:14:49.199Z,31.50
2022-07-25T15:17:15.898Z,31.40
2022-07-25T15:19:42.597Z,31.30
2022-07-25T15:22:09.256Z,31.20
2022-07-25T15:25:06.348Z,31.20
2022-07-25T15:27:22.715Z,31.30
2022-07-25T15:29:49.509Z,31.40
2022-07-25T15:32:16.252Z,31.60
2022-07-25T15:34:42.935Z,31.80
2022-07-25T15:37:09.807Z,31.90
2022-07-25T15:39:36.608Z,32.00
2022-07-25T15:42:03.552Z,32.00
2022-07-25T15:44:32.671Z,32.10
2022-07-25T15:46:59.506Z,32.20
2022-07-25T15:49:26.249Z,32.10
2022-07-25T15:51:53.074Z,32.00
2022-07-25T15:54:19.757Z,31.80
2022-07-25T15:56:46.447Z,31.70
2022-07-25T15:59:13.388Z,31.50
2022-07-25T16:01:40.178Z,31.50
2022-07-25T16:04:06.971Z,31.50
2022-07-25T16:06:33.695Z,31.60
2022-07-25T16:09:00.863Z,31.80
2022-07-25T16:11:27.603Z,31.90
2022-07-25T16:13:54.806Z,32.00
2022-07-25T16:16:22.149Z,31.90
2022-07-25T16:18:48.996Z,31.80
2022-07-25T16:21:15.727Z,31.70
2022-07-25T16:23:45.542Z,31.50
2022-07-25T16:26:13.223Z,31.20
2022-07-25T16:28:40.776Z,30.90
2022-07-25T16:31:07.481Z,30.60
2022-07-25T16:33:34.323Z,30.50
2022-07-25T16:36:01.018Z,30.30
2022-07-25T16:38:28.920Z,30.10
2022-07-25T16:40:55.767Z,30.10
2022-07-25T16:43:22.503Z,30.10
2022-07-25T16:45:49.273Z,30.30
2022-07-25T16:48:15.939Z,30.70
2022-07-25T16:50:42.648Z,31.00
2022-07-25T16:53:09.482Z,31.30
2022-07-25T16:55:36.216Z,31.60
2022-07-25T16:58:02.973Z,31.60
2022-07-25T17:00:30.090Z,31.50
2022-07-25T17:02:56.760Z,31.20
2022-07-25T17:05:23.524Z,30.90
2022-07-25T17:07:57.041Z,30.60
2022-07-25T17:10:25.496Z,30.30
2022-07-25T17:12:52.143Z,30.10
2022-07-25T17:15:18.907Z,29.90
2022-07-25T17:17:45.728Z,29.80
2022-07-25T17:20:12.683Z,29.70
2022-07-25T17:22:39.357Z,29.50
2022-07-25T17:25:06.642Z,29.40
2022-07-25T17:27:33.361Z,29.30
2022-07-25T17:30:00.041Z,29.30
2022-07-25T17:32:29.901Z,29.10
2022-07-25T17:34:57.460Z,28.50
2022-07-25T17:37:24.446Z,28.10
2022-07-25T17:39:51.157Z,27.70
2022-07-25T17:42:22.399Z,27.30
2022-07-25T17:44:52.619Z,27.00
2022-07-25T17:47:19.664Z,26.80
2022-07-25T17:49:46.528Z,26.60
2022-07-25T17:52:13.269Z,26.50
2022-07-25T17:54:40.235Z,26.40
2022-07-25T17:57:06.995Z,26.30
2022-07-25T17:59:34.378Z,26.20
2022-07-25T18:02:01.705Z,26.10
2022-07-25T18:04:28.507Z,26.00
2022-07-25T18:06:55.387Z,26.00
2022-07-25T18:09:22.694Z,25.90
2022-07-25T18:11:49.416Z,25.90
2022-07-25T18:14:16.307Z,25.90
2022-07-25T18:16:45.409Z,25.80
2022-07-25T18:19:12.574Z,25.80
2022-07-25T18:21:39.400Z,25.60
2022-07-25T18:24:06.717Z,25.60
2022-07-25T18:26:33.922Z,25.50
2022-07-25T18:29:00.578Z,25.40
2022-07-25T18:31:27.448Z,25.30
2022-07-25T18:33:54.192Z,25.20
2022-07-25T18:36:20.837Z,25.10
2022-07-25T18:38:48.847Z,25.00
2022-07-25T18:41:30.988Z,25.00
2022-07-25T18:43:57.761Z,24.80
2022-07-25T18:46:24.680Z,24.80
2022-07-25T18:48:51.884Z,24.80
2022-07-25T18:51:19.571Z,24.70
2022-07-25T18:53:48.626Z,24.70
2022-07-25T18:56:16.295Z,24.70
2022-07-25T18:58:43.093Z,24.70
2022-07-25T19:01:30.692Z,24.50
2022-07-25T19:03:57.381Z,24.50
2022-07-25T19:06:24.109Z,24.50
2022-07-25T19:08:51.000Z,24.30
2022-07-25T19:11:17.686Z,24.20
2022-07-25T19:13:50.174Z,24.20
2022-07-25T19:16:17.944Z,24.10
2022-07-25T19:18:44.696Z,24.00
2022-07-25T19:21:11.451Z,23.90
2022-07-25T19:23:38.095Z,23.80
2022-07-25T19:26:04.812Z,23.60
2022-07-25T19:28:32.608Z,23.50
2022-07-25T19:30:59.422Z,23.40
2022-07-25T19:33:26.197Z,23.40
2022-07-25T19:36:01.740Z,23.30
2022-07-25T19:38:28.400Z,23.10
2022-07-25T19:40:55.109Z,23.00
2022-07-25T19:43:21.792Z,22.90
2022-07-25T19:45:48.654Z,22.80
2022-07-25T19:48:15.378Z,22.80
2022-07-25T19:50:42.195Z,22.70
2022-07-25T19:53:09.111Z,22.80
2022-07-25T19:55:35.839Z,22.70
2022-07-25T19:58:02.617Z,22.70
2022-07-25T20:00:29.292Z,22.60
2022-07-25T20:02:55.998Z,22.50
2022-07-25T20:05:22.745Z,22.50
2022-07-25T20:07:49.462Z,22.40
2022-07-25T20:10:17.891Z,22.30
2022-07-25T20:12:44.893Z,22.30
2022-07-25T20:15:11.570Z,22.20
2022-07-25T20:17:38.315Z,22.20
2022-07-25T20:20:06.135Z,22.20
2022-07-25T20:22:37.428Z,22.10
2022-07-25T20:25:05.497Z,22.10
2022-07-25T20:27:32.204Z,22.00
2022-07-25T20:30:01.273Z,22.00
2022-07-25T20:32:27.924Z,21.90
2022-07-25T20:34:54.688Z,21.90
2022-07-25T20:37:22.515Z,21.90
2022-07-25T20:39:50.775Z,21.90
2022-07-25T20:42:17.874Z,21.90
2022-07-25T20:44:44.585Z,21.90
2022-07-25T20:47:13.643Z,21.80
2022-07-25T20:49:40.484Z,21.90
2022-07-25T20:52:08.215Z,21.90
2022-07-25T20:54:35.351Z,21.80
2022-07-25T20:57:02.727Z,21.90
2022-07-25T20:59:29.456Z,21.80
2022-07-25T21:01:56.995Z,21.90
2022-07-25T21:04:23.902Z,21.80
2022-07-25T21:06:50.655Z,21.80
2022-07-25T21:09:18.076Z,21.70
2022-07-25T21:11:44.911Z,21.70
2022-07-25T21:14:11.661Z,21.80
2022-07-25T21:16:38.374Z,21.70
2022-07-25T21:19:05.529Z,21.70
2022-07-25T21:21:32.586Z,21.60
2022-07-25T21:23:59.258Z,21.50
2022-07-25T21:26:25.927Z,21.50
2022-07-25T21:28:52.713Z,21.40
2022-07-25T21:31:19.645Z,21.40
2022-07-25T21:33:46.428Z,21.30
2022-07-25T21:36:13.107Z,21.30
2022-07-25T21:38:39.773Z,21.20
2022-07-25T21:41:06.728Z,21.20
2022-07-25T21:43:34.174Z,21.10
2022-07-25T21:46:00.922Z,21.10
2022-07-25T21:48:46.156Z,21.10
2022-07-25T21:51:19.275Z,21.10
2022-07-25T21:53:50.283Z,21.00
2022-07-25T21:56:16.943Z,21.00
2022-07-25T21:58:43.671Z,21.10
2022-07-25T22:01:10.502Z,21.00
2022-07-25T22:03:37.308Z,21.00
2022-07-25T22:06:04.063Z,21.00
2022-07-25T22:08:30.807Z,21.00
2022-07-25T22:10:58.506Z,21.10
2022-07-25T22:13:25.223Z,21.00
2022-07-25T22:15:52.054Z,21.00
2022-07-25T22:18:19.075Z,21.00
2022-07-25T22:20:45.803Z,21.10
2022-07-25T22:23:12.599Z,21.40
2022-07-25T22:25:39.279Z,21.60
2022-07-25T22:28:05.944Z,22.10
2022-07-25T22:30:36.074Z,22.30
2022-07-25T22:33:02.749Z,22.40
2022-07-25T22:35:29.474Z,22.40
2022-07-25T22:37:56.164Z,22.30
2022-07-25T22:40:22.900Z,22.20
2022-07-25T22:42:49.629Z,22.20
2022-07-25T22:45:16.501Z,22.10
2022-07-25T22:47:43.151Z,22.00
2022-07-25T22:50:09.956Z,22.00
2022-07-25T22:52:36.729Z,21.80
2022-07-25T22:55:03.707Z,21.70
2022-07-25T22:57:30.410Z,21.70
2022-07-25T23:00:06.136Z,21.70
2022-07-25T23:02:32.859Z,21.60
2022-07-25T23:04:59.521Z,21.60
2022-07-25T23:07:26.266Z,21.60
2022-07-25T23:09:52.942Z,21.50
2022-07-25T23:12:19.639Z,21.50
2022-07-25T23:14:46.322Z,21.40
2022-07-25T23:17:20.159Z,21.40
2022-07-25T23:19:48.748Z,21.30
2022-07-25T23:22:15.643Z,21.30
2022-07-25T23:24:42.747Z,21.30
2022-07-25T23:27:09.632Z,21.20
2022-07-25T23:29:36.379Z,21.20
2022-07-25T23:32:03.166Z,21.10
2022-07-25T23:34:30.059Z,21.10
2022-07-25T23:36:56.938Z,21.10
2022-07-25T23:39:23.596Z,21.00
2022-07-25T23:41:50.397Z,21.10
2022-07-25T23:44:17.123Z,21.00
2022-07-25T23:46:44.473Z,21.00
2022-07-25T23:49:11.961Z,21.00
2022-07-25T23:51:39.204Z,20.90
2022-07-25T23:54:06.043Z,20.90
2022-07-25T23:56:32.796Z,20.90
2022-07-25T23:58:59.703Z,21.00
